Time;durP1;ratioP1;P1;durP2;ratioP2;P2;SDS_P1;SDS_P2;PMS_P1;PMS_P2;Temp;Humidity;BMP_temperature;BMP_pressure;BME280_temperature;BME280_humidity;BME280_pressure;Samples;Min_cycle;Max_cycle;Signal;HPM_P1;HPM_P2
2023/09/04 00:00:20;;;;;;;3.58;3.28;;;14.40;99.90;;;;;;5097563;28;20130;-57
2023/09/04 00:02:48;;;;;;;7.78;5.03;;;14.30;99.90;;;;;;5091944;28;20044;-57
2023/09/04 00:05:14;;;;;;;4.35;3.95;;;14.30;99.90;;;;;;5080538;28;20051;-56
2023/09/04 00:07:40;;;;;;;5.07;4.13;;;14.20;99.90;;;;;;5102490;28;20057;-55
2023/09/04 00:10:06;;;;;;;3.95;3.58;;;14.20;99.90;;;;;;5089302;28;20093;-56
2023/09/04 00:12:32;;;;;;;5.40;3.22;;;14.20;99.90;;;;;;5088698;28;20071;-56
2023/09/04 00:14:58;;;;;;;3.83;3.47;;;14.20;99.90;;;;;;5073154;28;20113;-57
2023/09/04 00:17:23;;;;;;;5.32;3.88;;;14.10;99.90;;;;;;5099518;28;20509;-56
2023/09/04 00:19:49;;;;;;;4.35;3.40;;;14.00;99.90;;;;;;5082227;28;20044;-58
2023/09/04 00:22:15;;;;;;;5.50;5.00;;;14.10;99.90;;;;;;5078390;28;20085;-56
2023/09/04 00:24:40;;;;;;;4.25;3.85;;;14.00;99.90;;;;;;5103339;27;20082;-56
2023/09/04 00:27:06;;;;;;;3.90;3.60;;;14.00;99.90;;;;;;5103604;28;20086;-56
2023/09/04 00:29:32;;;;;;;3.70;3.40;;;13.90;99.90;;;;;;5104733;28;20055;-56
2023/09/04 00:31:57;;;;;;;3.70;3.40;;;13.90;99.90;;;;;;5065979;28;20503;-57
2023/09/04 00:34:23;;;;;;;3.33;2.90;;;13.80;99.90;;;;;;5104251;28;20063;-56
2023/09/04 00:36:49;;;;;;;4.20;3.15;;;13.80;99.90;;;;;;5098521;28;20147;-56
2023/09/04 00:39:17;;;;;;;4.18;2.75;;;13.80;99.90;;;;;;5105065;28;20442;-56
2023/09/04 00:41:42;;;;;;;4.00;3.65;;;13.70;99.90;;;;;;5101362;28;20058;-57
2023/09/04 00:44:08;;;;;;;3.55;3.17;;;13.60;99.90;;;;;;5103990;28;20056;-56
2023/09/04 00:46:37;;;;;;;2.95;2.75;;;13.60;99.90;;;;;;5104243;28;20060;-56
2023/09/04 00:49:06;;;;;;;3.75;3.10;;;13.50;99.90;;;;;;5046804;28;20056;-56
2023/09/04 00:51:32;;;;;;;3.58;2.95;;;13.50;99.90;;;;;;5099916;28;20066;-56
2023/09/04 00:53:58;;;;;;;2.97;2.75;;;13.50;99.90;;;;;;5103961;28;20056;-56
2023/09/04 00:56:24;;;;;;;3.67;3.05;;;13.50;99.90;;;;;;5104732;28;20051;-56
2023/09/04 00:58:50;;;;;;;2.67;2.47;;;13.40;99.90;;;;;;5082619;28;20249;-57
2023/09/04 01:01:18;;;;;;;4.82;2.60;;;13.40;99.90;;;;;;5098548;28;20473;-56
2023/09/04 01:03:43;;;;;;;2.72;2.50;;;13.40;99.90;;;;;;5101287;28;20040;-55
2023/09/04 01:06:09;;;;;;;3.30;3.00;;;13.40;99.90;;;;;;5102919;28;20066;-56
2023/09/04 01:08:37;;;;;;;3.97;3.25;;;13.30;99.90;;;;;;5104395;28;20181;-55
2023/09/04 01:11:32;;;;;;;3.10;2.83;;;13.30;99.90;;;;;;5075598;28;20063;-56
2023/09/04 01:13:58;;;;;;;;;;;13.20;99.90;;;;;;5101658;28;20059;-56
2023/09/04 01:16:25;;;;;;;2.92;2.65;;;13.20;99.90;;;;;;5073364;28;20581;-56
2023/09/04 01:18:51;;;;;;;2.22;2.03;;;13.00;99.90;;;;;;5083030;28;20059;-56
2023/09/04 01:21:17;;;;;;;1.83;1.73;;;13.10;99.90;;;;;;5095741;28;20132;-56
2023/09/04 01:23:43;;;;;;;2.13;1.92;;;13.10;99.90;;;;;;5094497;28;20502;-56
2023/09/04 01:26:16;;;;;;;2.03;1.80;;;13.10;99.90;;;;;;5078719;28;20052;-56
2023/09/04 01:28:44;;;;;;;3.25;1.73;;;13.00;99.90;;;;;;5074984;28;20067;-57
2023/09/04 01:31:15;;;;;;;3.88;2.40;;;13.00;99.90;;;;;;5098884;28;20429;-58
2023/09/04 01:33:47;;;;;;;2.53;2.17;;;13.00;99.90;;;;;;5081666;28;20059;-57
2023/09/04 01:36:14;;;;;;;2.55;2.35;;;13.40;99.90;;;;;;5083467;28;20074;-57
2023/09/04 01:38:42;;;;;;;2.58;2.38;;;12.90;99.90;;;;;;5085301;28;20199;-56
2023/09/04 01:41:08;;;;;;;3.03;2.72;;;12.90;99.90;;;;;;5087899;28;20056;-56
2023/09/04 01:43:38;;;;;;;2.25;2.05;;;12.80;99.90;;;;;;5088110;28;20063;-56
2023/09/04 01:46:04;;;;;;;2.30;2.10;;;12.80;99.90;;;;;;5093388;28;20428;-56
2023/09/04 01:48:29;;;;;;;2.88;2.63;;;12.80;99.90;;;;;;5100667;28;20044;-56
2023/09/04 01:50:55;;;;;;;3.22;2.92;;;12.80;99.90;;;;;;5085988;28;20147;-55
2023/09/04 01:53:22;;;;;;;2.47;2.28;;;12.70;99.90;;;;;;5114613;27;20111;-56
2023/09/04 01:55:48;;;;;;;3.65;2.55;;;12.60;99.90;;;;;;5099470;27;20056;-55
2023/09/04 01:58:13;;;;;;;2.58;2.38;;;12.60;99.90;;;;;;5102788;28;20497;-56
2023/09/04 02:00:39;;;;;;;2.80;2.35;;;12.60;99.90;;;;;;5103624;28;20062;-55
2023/09/04 02:03:05;;;;;;;2.10;1.90;;;12.50;99.90;;;;;;5081038;28;20095;-56
2023/09/04 02:05:30;;;;;;;5.63;2.55;;;12.50;99.90;;;;;;5093862;28;20063;-57
2023/09/04 02:07:56;;;;;;;4.00;2.92;;;12.50;99.90;;;;;;5094489;28;20051;-56
2023/09/04 02:10:23;;;;;;;3.65;2.90;;;12.50;99.90;;;;;;5101928;28;20048;-56
2023/09/04 02:12:49;;;;;;;3.60;2.13;;;13.30;99.90;;;;;;5104009;28;20059;-55
2023/09/04 02:15:16;;;;;;;3.80;2.50;;;12.40;99.90;;;;;;5111145;27;20112;-56
2023/09/04 02:17:41;;;;;;;3.00;2.65;;;12.40;99.90;;;;;;5094962;28;20059;-57
2023/09/04 02:20:07;;;;;;;2.70;2.30;;;12.40;99.90;;;;;;5091735;28;20132;-58
2023/09/04 02:22:36;;;;;;;2.80;2.60;;;12.40;99.90;;;;;;5089906;28;20075;-56
2023/09/04 02:25:03;;;;;;;3.85;3.08;;;12.30;99.90;;;;;;5096546;28;20051;-58
2023/09/04 02:27:28;;;;;;;4.53;2.92;;;12.30;99.90;;;;;;5099194;28;20044;-56
2023/09/04 02:29:54;;;;;;;2.70;2.40;;;12.30;99.90;;;;;;5107812;27;20579;-56
2023/09/04 02:32:20;;;;;;;2.88;2.30;;;12.20;99.90;;;;;;5069710;28;20044;-57
2023/09/04 02:34:46;;;;;;;2.22;2.03;;;12.20;99.90;;;;;;5075966;28;20055;-56
2023/09/04 02:37:12;;;;;;;2.33;2.13;;;12.20;99.90;;;;;;5096400;28;20880;-56
2023/09/04 02:39:38;;;;;;;5.45;2.92;;;12.10;99.90;;;;;;5090776;28;20051;-55
2023/09/04 02:42:03;;;;;;;2.78;2.58;;;12.10;99.90;;;;;;5096842;28;20712;-56
2023/09/04 02:44:29;;;;;;;2.75;2.55;;;12.10;99.90;;;;;;5106891;28;20055;-56
2023/09/04 02:46:55;;;;;;;4.00;2.47;;;12.10;99.90;;;;;;5096017;28;20200;-56
2023/09/04 02:49:20;;;;;;;2.88;2.58;;;12.00;99.90;;;;;;5099959;28;20098;-57
2023/09/04 02:51:46;;;;;;;2.85;2.03;;;12.00;99.90;;;;;;5101287;28;20059;-56
2023/09/04 02:54:12;;;;;;;2.03;1.83;;;12.00;99.90;;;;;;5087985;28;20574;-57
2023/09/04 02:56:37;;;;;;;2.20;2.00;;;12.00;99.90;;;;;;5102223;28;20115;-56
2023/09/04 02:59:03;;;;;;;2.50;2.30;;;11.90;99.90;;;;;;5101329;28;20059;-56
2023/09/04 03:01:29;;;;;;;4.38;3.35;;;11.90;99.90;;;;;;5098125;28;20063;-56
2023/09/04 03:03:54;;;;;;;2.67;2.47;;;11.90;99.90;;;;;;5067651;28;20070;-57
2023/09/04 03:06:20;;;;;;;2.55;2.35;;;11.80;99.90;;;;;;5098352;28;20150;-57
2023/09/04 03:08:46;;;;;;;4.47;3.05;;;11.80;99.90;;;;;;5102244;28;20055;-55
2023/09/04 03:11:13;;;;;;;5.78;3.25;;;11.80;99.90;;;;;;5081812;27;20081;-56
2023/09/04 03:13:39;;;;;;;2.80;2.53;;;11.80;99.90;;;;;;5080023;28;20845;-57
2023/09/04 03:16:05;;;;;;;2.85;2.42;;;11.80;99.90;;;;;;5106782;27;20078;-56
2023/09/04 03:21:23;;;;;;;8.27;2.78;;;11.80;99.90;;;;;;5104056;28;20148;-55
2023/09/04 03:23:52;;;;;;;2.33;2.08;;;11.80;99.90;;;;;;5083408;28;20490;-56
2023/09/04 03:26:18;;;;;;;3.22;2.20;;;11.80;99.90;;;;;;5101784;28;20528;-59
2023/09/04 03:28:44;;;;;;;3.50;2.05;;;11.80;99.90;;;;;;5092795;28;20188;-58
2023/09/04 03:31:14;;;;;;;2.58;1.73;;;11.70;99.90;;;;;;5074075;28;20134;-56
2023/09/04 03:33:40;;;;;;;3.47;2.25;;;11.60;99.90;;;;;;5079490;28;20048;-56
2023/09/04 03:36:06;;;;;;;5.43;2.42;;;11.70;99.90;;;;;;5080055;28;20071;-56
2023/09/04 03:38:31;;;;;;;4.75;2.65;;;11.70;99.90;;;;;;5104796;27;20512;-56
2023/09/04 03:40:57;;;;;;;5.85;3.20;;;11.60;99.90;;;;;;5092467;27;20086;-57
2023/09/04 03:43:23;;;;;;;3.03;2.67;;;11.60;99.90;;;;;;5087722;28;20494;-56
2023/09/04 03:45:48;;;;;;;3.80;2.92;;;11.60;99.90;;;;;;5083763;28;20056;-56
2023/09/04 03:48:14;;;;;;;3.05;2.75;;;11.50;99.90;;;;;;5097989;28;20058;-57
2023/09/04 03:50:40;;;;;;;3.17;2.13;;;11.50;99.90;;;;;;5095078;28;20052;-57
2023/09/04 03:53:05;;;;;;;2.83;2.63;;;11.50;99.90;;;;;;5091617;28;20071;-57
2023/09/04 03:55:31;;;;;;;2.35;2.15;;;11.50;99.90;;;;;;5093727;28;20141;-56
2023/09/04 03:57:58;;;;;;;2.80;2.60;;;11.50;99.90;;;;;;5093235;28;20066;-56
2023/09/04 04:00:24;;;;;;;3.92;2.05;;;11.40;99.90;;;;;;5067913;28;20139;-56
2023/09/04 04:02:51;;;;;;;2.95;2.10;;;11.40;99.90;;;;;;5088479;28;20047;-58
2023/09/04 04:05:18;;;;;;;2.60;1.88;;;11.40;99.90;;;;;;5087419;28;20048;-57
2023/09/04 04:07:44;;;;;;;1.75;1.65;;;11.40;99.90;;;;;;5092703;28;20044;-57
2023/09/04 04:10:10;;;;;;;1.67;1.58;;;11.40;99.90;;;;;;5096574;28;20105;-58
2023/09/04 04:12:36;;;;;;;4.13;1.52;;;11.40;99.90;;;;;;5096262;28;20052;-57
2023/09/04 04:15:05;;;;;;;2.25;2.05;;;11.40;99.90;;;;;;5094332;28;20062;-56
2023/09/04 04:17:36;;;;;;;2.90;1.92;;;11.40;99.90;;;;;;5075096;28;20505;-56
2023/09/04 04:20:06;;;;;;;2.30;2.00;;;11.40;99.90;;;;;;5081521;28;20566;-55
2023/09/04 04:22:36;;;;;;;2.72;2.35;;;11.30;99.90;;;;;;5102249;27;20438;-57
2023/09/04 04:25:02;;;;;;;2.28;2.08;;;11.30;99.90;;;;;;5092137;28;20064;-59
2023/09/04 04:27:28;;;;;;;4.45;2.65;;;11.30;99.90;;;;;;5068479;27;20437;-56
2023/09/04 04:29:55;;;;;;;4.88;2.42;;;11.30;99.90;;;;;;5100060;27;20051;-56
2023/09/04 04:32:21;;;;;;;4.03;2.08;;;11.30;99.90;;;;;;5097477;27;20055;-58
2023/09/04 04:34:47;;;;;;;2.60;1.88;;;11.30;99.90;;;;;;5112527;27;20059;-58
2023/09/04 04:37:13;;;;;;;4.28;1.90;;;11.30;99.90;;;;;;5093028;28;20415;-57
2023/09/04 04:39:40;;;;;;;3.33;2.53;;;11.30;99.90;;;;;;5075143;28;20405;-56
2023/09/04 04:42:05;;;;;;;1.90;1.80;;;11.30;99.90;;;;;;5101834;28;20081;-56
2023/09/04 04:44:31;;;;;;;2.03;1.85;;;11.20;99.90;;;;;;5097135;28;20051;-56
2023/09/04 04:46:57;;;;;;;4.47;2.65;;;11.20;99.90;;;;;;5095044;28;20098;-55
2023/09/04 04:49:23;;;;;;;2.20;2.00;;;11.10;99.90;;;;;;5087618;28;20066;-56
2023/09/04 04:51:54;;;;;;;2.10;1.90;;;11.10;99.90;;;;;;5100361;28;20142;-56
2023/09/04 04:54:20;;;;;;;3.15;1.90;;;11.10;99.90;;;;;;5094025;28;20079;-56
2023/09/04 04:56:49;;;;;;;2.25;1.85;;;11.10;99.90;;;;;;5092478;28;20044;-57
2023/09/04 04:59:15;;;;;;;1.55;1.38;;;11.10;99.90;;;;;;5095872;28;20506;-55
2023/09/04 05:01:42;;;;;;;1.75;1.50;;;11.10;99.90;;;;;;5084881;28;20121;-56
2023/09/04 05:04:08;;;;;;;2.00;1.77;;;11.30;99.90;;;;;;5103767;28;20063;-56
2023/09/04 05:06:37;;;;;;;2.08;1.48;;;11.10;99.90;;;;;;5086671;28;20079;-56
2023/09/04 05:09:03;;;;;;;1.33;1.23;;;11.20;99.90;;;;;;5071965;28;20178;-56
2023/09/04 05:11:29;;;;;;;2.63;2.22;;;11.30;99.90;;;;;;5102565;27;20055;-55
2023/09/04 05:13:55;;;;;;;2.10;1.90;;;11.40;99.90;;;;;;5096021;27;20063;-56
2023/09/04 05:16:20;;;;;;;3.78;2.00;;;11.40;99.90;;;;;;5103203;28;20048;-55
2023/09/04 05:18:46;;;;;;;1.90;1.77;;;11.60;99.90;;;;;;5105324;28;20054;-56
2023/09/04 05:21:12;;;;;;;2.63;2.17;;;11.60;99.90;;;;;;5089213;27;20573;-56
2023/09/04 05:23:38;;;;;;;4.38;2.15;;;11.60;99.90;;;;;;5080087;28;20052;-56
2023/09/04 05:26:03;;;;;;;2.47;2.10;;;11.60;99.90;;;;;;5092654;28;20056;-56
2023/09/04 05:28:29;;;;;;;3.97;2.53;;;11.70;99.90;;;;;;5103539;28;20097;-56
2023/09/04 05:31:04;;;;;;;4.38;2.03;;;11.80;99.90;;;;;;5078139;28;20113;-56
2023/09/04 05:33:30;;;;;;;2.33;2.10;;;11.80;99.90;;;;;;5099486;28;20537;-56
2023/09/04 05:35:56;;;;;;;5.13;2.70;;;11.90;99.90;;;;;;5101315;28;20052;-56
2023/09/04 05:38:22;;;;;;;3.53;3.20;;;12.00;99.90;;;;;;5096486;28;20062;-55
2023/09/04 05:40:55;;;;;;;4.00;3.05;;;12.20;99.90;;;;;;5102932;28;20783;-55
2023/09/04 05:43:21;;;;;;;4.80;3.63;;;12.30;99.90;;;;;;5107954;28;20052;-55
2023/09/04 05:45:48;;;;;;;9.80;3.63;;;12.40;99.90;;;;;;5079450;28;20057;-55
2023/09/04 05:48:14;;;;;;;4.32;3.10;;;12.50;99.90;;;;;;5101636;28;20067;-56
2023/09/04 05:50:39;;;;;;;6.47;3.47;;;12.60;99.90;;;;;;5102255;27;20052;-56
2023/09/04 05:53:05;;;;;;;4.32;3.28;;;12.80;99.90;;;;;;5088249;28;20051;-56
2023/09/04 05:55:30;;;;;;;4.35;3.83;;;12.90;99.90;;;;;;5089040;28;20062;-56
2023/09/04 05:57:56;;;;;;;3.63;3.25;;;13.00;99.90;;;;;;5088108;28;20267;-56
2023/09/04 06:00:22;;;;;;;5.88;4.22;;;13.10;99.90;;;;;;5077308;28;20063;-56
2023/09/04 06:02:48;;;;;;;6.03;4.65;;;13.20;99.90;;;;;;5104747;28;20431;-56
2023/09/04 06:05:13;;;;;;;6.28;5.68;;;13.40;99.90;;;;;;5107599;28;20051;-61
2023/09/04 06:07:39;;;;;;;5.57;4.70;;;13.50;99.90;;;;;;5088646;28;20040;-61
2023/09/04 06:10:05;;;;;;;6.82;6.10;;;13.70;99.90;;;;;;5093770;28;20063;-61
2023/09/04 06:12:31;;;;;;;6.85;5.90;;;13.90;99.90;;;;;;5103323;28;20079;-60
2023/09/04 06:14:57;;;;;;;8.25;6.35;;;14.00;99.90;;;;;;5095115;28;20116;-60
2023/09/04 06:17:22;;;;;;;6.50;5.88;;;14.20;99.90;;;;;;5102752;28;20796;-57
2023/09/04 06:19:48;;;;;;;8.65;6.10;;;14.40;99.90;;;;;;5083686;28;20048;-60
2023/09/04 06:22:14;;;;;;;9.30;6.68;;;14.50;99.90;;;;;;5085441;28;20060;-56
2023/09/04 06:24:39;;;;;;;9.75;6.85;;;14.70;99.90;;;;;;5084444;28;20488;-56
2023/09/04 06:27:05;;;;;;;10.10;7.80;;;14.90;99.90;;;;;;5079683;28;20418;-56
2023/09/04 06:29:31;;;;;;;9.80;8.75;;;15.00;99.90;;;;;;5076420;28;20189;-56
2023/09/04 06:31:57;;;;;;;9.90;8.90;;;15.30;99.90;;;;;;5087562;27;20067;-57
2023/09/04 06:34:22;;;;;;;9.70;8.75;;;15.50;99.90;;;;;;5099846;28;20412;-56
2023/09/04 06:36:48;;;;;;;9.80;8.48;;;15.60;99.90;;;;;;5079233;28;20052;-56
2023/09/04 06:39:14;;;;;;;9.13;8.20;;;15.90;99.90;;;;;;5064987;28;20046;-56
2023/09/04 06:41:40;;;;;;;10.88;8.18;;;16.10;99.90;;;;;;5098567;27;20063;-57
2023/09/04 06:44:06;;;;;;;10.05;8.35;;;16.30;99.90;;;;;;5104565;28;20070;-56
2023/09/04 06:46:36;;;;;;;9.32;7.47;;;16.50;99.90;;;;;;5097199;28;20091;-56
2023/09/04 06:49:02;;;;;;;9.77;7.47;;;16.80;99.90;;;;;;5085278;28;21183;-57
2023/09/04 06:51:28;;;;;;;12.60;8.68;;;16.90;99.90;;;;;;5100119;28;20063;-58
2023/09/04 06:53:54;;;;;;;9.10;7.72;;;17.10;99.90;;;;;;5087517;28;20059;-57
2023/09/04 06:56:20;;;;;;;8.70;7.45;;;17.30;99.90;;;;;;5104857;28;20192;-58
2023/09/04 06:58:46;;;;;;;9.20;7.30;;;17.50;99.90;;;;;;5101428;28;20409;-57
2023/09/04 07:01:12;;;;;;;7.90;7.10;;;17.70;99.90;;;;;;5102763;28;20104;-58
2023/09/04 07:03:37;;;;;;;10.18;7.65;;;17.80;99.90;;;;;;5105526;28;20055;-58
2023/09/04 07:06:03;;;;;;;9.50;8.38;;;17.90;99.90;;;;;;5080831;28;20467;-57
2023/09/04 07:08:31;;;;;;;10.27;7.35;;;18.10;99.90;;;;;;5076145;28;20059;-56
2023/09/04 07:10:57;;;;;;;9.73;7.85;;;18.10;99.90;;;;;;5090674;28;20055;-56
2023/09/04 07:13:23;;;;;;;11.20;8.63;;;18.20;99.90;;;;;;5090429;28;20044;-56
2023/09/04 07:15:48;;;;;;;7.85;7.07;;;18.40;99.90;;;;;;5087116;28;20412;-57
2023/09/04 07:18:14;;;;;;;8.77;7.88;;;18.50;99.90;;;;;;5092618;28;20063;-56
2023/09/04 07:20:40;;;;;;;9.15;7.35;;;18.60;99.90;;;;;;5091840;28;20108;-56
2023/09/04 07:23:06;;;;;;;11.18;8.23;;;18.80;99.90;;;;;;5101967;27;20047;-57
2023/09/04 07:25:32;;;;;;;7.95;7.20;;;18.90;99.90;;;;;;5096257;28;20059;-56
2023/09/04 07:27:58;;;;;;;12.85;7.28;;;19.20;99.90;;;;;;5080487;28;20139;-57
2023/09/04 07:30:23;;;;;;;11.70;7.72;;;19.30;99.90;;;;;;5085087;28;20147;-57
2023/09/04 07:32:49;;;;;;;11.60;7.57;;;19.60;99.90;;;;;;5077040;28;20047;-57
2023/09/04 07:37:35;;;;;;;10.75;7.35;;;19.70;99.90;;;;;;5084948;27;20446;-57
2023/09/04 07:40:05;;;;;;;9.43;7.05;;;20.00;99.90;;;;;;5095727;28;20235;-57
2023/09/04 07:42:30;;;;;;;7.63;6.65;;;20.10;99.90;;;;;;5095644;28;20511;-57
2023/09/04 07:44:56;;;;;;;7.53;6.72;;;20.30;99.90;;;;;;5106560;28;20551;-57
2023/09/04 07:47:22;;;;;;;6.05;5.53;;;20.30;99.90;;;;;;5078134;28;23045;-57
2023/09/04 07:49:48;;;;;;;6.32;5.70;;;20.50;99.90;;;;;;5100200;28;20063;-57
2023/09/04 07:52:14;;;;;;;6.70;5.97;;;20.70;99.90;;;;;;5098850;28;20096;-57
2023/09/04 07:54:40;;;;;;;7.50;5.07;;;20.80;99.90;;;;;;5106146;28;20472;-57
2023/09/04 07:57:07;;;;;;;5.80;5.20;;;20.90;99.90;;;;;;5106963;28;20051;-56
2023/09/04 07:59:33;;;;;;;5.78;5.18;;;21.00;99.90;;;;;;5099384;28;20059;-57
2023/09/04 08:02:03;;;;;;;6.05;4.20;;;21.20;99.90;;;;;;5116426;28;20417;-57
2023/09/04 08:04:29;;;;;;;5.22;4.60;;;21.40;99.90;;;;;;5107165;28;20062;-57
2023/09/04 08:06:56;;;;;;;5.35;3.90;;;21.50;99.90;;;;;;5100977;28;20061;-57
2023/09/04 08:09:22;;;;;;;7.25;4.03;;;21.80;99.90;;;;;;5102503;28;20732;-57
2023/09/04 08:11:48;;;;;;;8.27;4.22;;;21.90;99.90;;;;;;5099763;28;20408;-57
2023/09/04 08:14:13;;;;;;;4.68;4.10;;;22.30;99.90;;;;;;5107670;28;20489;-57
2023/09/04 08:16:39;;;;;;;5.68;4.95;;;22.30;99.90;;;;;;5104313;28;20454;-57
2023/09/04 08:19:05;;;;;;;4.07;3.78;;;22.50;99.90;;;;;;5096150;28;20059;-56
2023/09/04 08:21:31;;;;;;;4.68;4.28;;;22.70;99.90;;;;;;5081787;28;20505;-57
2023/09/04 08:23:57;;;;;;;6.18;3.97;;;22.80;99.90;;;;;;5106603;28;20595;-57
2023/09/04 08:26:23;;;;;;;4.38;3.47;;;23.20;99.90;;;;;;5109308;28;20059;-57
2023/09/04 08:28:48;;;;;;;3.60;3.13;;;23.20;99.90;;;;;;5113045;28;20115;-57
2023/09/04 08:31:14;;;;;;;6.22;3.05;;;23.50;99.90;;;;;;5112852;27;20051;-58
2023/09/04 08:33:40;;;;;;;4.05;2.95;;;23.70;99.90;;;;;;5101487;28;20563;-57
2023/09/04 08:36:06;;;;;;;6.40;2.92;;;23.70;99.90;;;;;;5102594;28;20488;-57
2023/09/04 08:38:31;;;;;;;4.43;2.70;;;24.10;99.90;;;;;;5103350;28;20116;-58
2023/09/04 08:41:02;;;;;;;3.60;2.95;;;24.40;99.90;;;;;;5097149;28;20067;-58
2023/09/04 08:43:31;;;;;;;4.43;3.28;;;24.40;99.90;;;;;;5104529;28;20134;-58
2023/09/04 08:46:03;;;;;;;2.55;2.30;;;24.60;99.90;;;;;;5099707;28;20501;-58
2023/09/04 08:48:32;;;;;;;2.28;2.08;;;24.90;99.90;;;;;;5096287;28;20135;-58
2023/09/04 08:51:02;;;;;;;2.38;2.17;;;24.70;99.90;;;;;;5104917;28;20059;-58
2023/09/04 08:53:28;;;;;;;2.42;2.03;;;24.80;99.90;;;;;;5093962;28;20048;-57
2023/09/04 08:55:55;;;;;;;7.35;2.53;;;24.90;99.90;;;;;;5093544;28;20062;-57
2023/09/04 08:58:21;;;;;;;3.10;2.50;;;25.20;99.90;;;;;;5083730;28;20076;-57
2023/09/04 09:00:48;;;;;;;1.75;1.65;;;25.20;99.90;;;;;;5099727;28;20554;-57
2023/09/04 09:03:14;;;;;;;1.92;1.65;;;25.50;99.90;;;;;;5074387;28;20057;-57
2023/09/04 09:05:43;;;;;;;2.00;1.70;;;25.60;99.90;;;;;;5097044;28;20072;-58
2023/09/04 09:08:09;;;;;;;2.65;1.88;;;25.60;99.90;;;;;;5092176;28;20397;-58
2023/09/04 09:10:35;;;;;;;1.40;1.25;;;26.00;99.90;;;;;;5079916;28;20055;-58
2023/09/04 09:13:02;;;;;;;1.40;1.30;;;25.80;99.90;;;;;;5085013;28;20052;-58
2023/09/04 09:15:30;;;;;;;2.47;2.03;;;25.80;99.90;;;;;;5083356;28;20141;-60
2023/09/04 09:17:57;;;;;;;2.10;1.77;;;26.00;99.90;;;;;;5075507;28;20056;-59
2023/09/04 09:20:34;;;;;;;1.73;1.63;;;26.20;99.90;;;;;;5076431;28;20521;-60
2023/09/04 09:23:07;;;;;;;2.42;1.90;;;26.20;99.90;;;;;;5085832;28;20066;-61
2023/09/04 09:25:34;;;;;;;2.65;1.85;;;26.30;99.90;;;;;;5065319;28;20447;-57
2023/09/04 09:28:07;;;;;;;2.10;1.92;;;26.30;99.90;;;;;;5089315;27;20055;-57
2023/09/04 09:30:43;;;;;;;2.15;2.00;;;26.80;99.90;;;;;;5078224;28;20501;-58
2023/09/04 09:33:12;;;;;;;1.77;1.55;;;26.80;99.90;;;;;;5086671;28;20056;-58
2023/09/04 09:35:42;;;;;;;2.42;2.22;;;27.10;99.90;;;;;;5086389;28;20059;-58
2023/09/04 09:38:08;;;;;;;2.03;1.90;;;27.20;99.90;;;;;;5095180;28;20163;-57
2023/09/04 09:40:35;;;;;;;2.22;2.03;;;27.10;99.90;;;;;;5086481;28;20078;-58
2023/09/04 09:43:04;;;;;;;3.13;2.03;;;27.20;99.90;;;;;;5085608;28;20146;-58
2023/09/04 09:45:32;;;;;;;1.63;1.48;;;27.30;99.90;;;;;;5082034;28;20064;-58
2023/09/04 09:47:58;;;;;;;2.25;1.67;;;27.50;99.90;;;;;;5060448;28;20044;-58
2023/09/04 09:50:25;;;;;;;2.10;1.88;;;27.40;99.90;;;;;;5086171;28;20114;-58
2023/09/04 09:53:02;;;;;;;2.15;1.63;;;27.50;99.90;;;;;;5088479;28;20134;-58
2023/09/04 09:55:29;;;;;;;3.17;2.80;;;27.80;99.90;;;;;;5101207;28;20051;-58
2023/09/04 09:57:58;;;;;;;2.58;1.50;;;27.60;99.90;;;;;;5103200;28;20055;-58
2023/09/04 10:00:25;;;;;;;3.45;1.98;;;27.60;99.90;;;;;;5083145;28;20058;-57
2023/09/04 10:02:51;;;;;;;1.65;1.52;;;27.60;99.90;;;;;;5103662;28;20439;-58
2023/09/04 10:05:19;;;;;;;1.67;1.58;;;27.90;99.90;;;;;;5101827;28;20051;-57
2023/09/04 10:07:49;;;;;;;2.60;1.73;;;28.00;99.90;;;;;;5106562;28;20056;-58
2023/09/04 10:10:15;;;;;;;1.40;1.30;;;27.90;99.90;;;;;;5105759;27;20051;-58
2023/09/04 10:12:43;;;;;;;2.38;1.63;;;28.10;99.90;;;;;;5101988;27;20063;-58
2023/09/04 10:15:10;;;;;;;1.85;1.63;;;27.90;99.90;;;;;;5083400;28;20090;-58
2023/09/04 10:17:52;;;;;;;1.42;1.30;;;27.90;99.90;;;;;;5103313;28;20065;-58
2023/09/04 10:20:21;;;;;;;1.92;1.70;;;27.70;99.90;;;;;;5098699;28;20055;-58
2023/09/04 10:22:50;;;;;;;3.05;1.85;;;28.00;99.90;;;;;;5084154;28;20055;-58
2023/09/04 10:25:40;;;;;;;2.17;1.23;;;27.90;99.90;;;;;;5103243;28;20086;-58
2023/09/04 10:28:23;;;;;;;1.60;1.50;;;28.10;99.90;;;;;;5106672;27;20063;-58
2023/09/04 10:30:53;;;;;;;1.75;1.60;;;28.00;99.90;;;;;;5104282;28;20063;-58
2023/09/04 10:33:20;;;;;;;1.55;1.45;;;27.50;99.90;;;;;;5059597;28;20483;-58
2023/09/04 10:35:46;;;;;;;1.92;1.45;;;27.80;99.90;;;;;;5098058;27;20043;-58
2023/09/04 10:38:12;;;;;;;1.45;1.17;;;27.70;99.90;;;;;;5100412;28;20067;-58
2023/09/04 10:40:39;;;;;;;3.10;1.80;;;27.80;99.90;;;;;;5086262;28;20043;-58
2023/09/04 10:43:05;;;;;;;1.50;1.10;;;27.80;99.90;;;;;;5102411;27;20519;-58
2023/09/04 10:45:32;;;;;;;2.38;1.58;;;27.70;99.90;;;;;;5098950;28;20063;-57
2023/09/04 10:47:59;;;;;;;2.30;1.25;;;27.80;99.90;;;;;;5096739;28;20051;-58
2023/09/04 10:50:34;;;;;;;3.03;1.90;;;27.60;99.90;;;;;;5095973;27;20138;-59
2023/09/04 10:53:05;;;;;;;2.33;1.67;;;28.30;99.90;;;;;;5075040;28;20063;-58
2023/09/04 10:55:32;;;;;;;1.95;1.20;;;28.20;99.90;;;;;;5084897;28;20087;-58
2023/09/04 11:00:39;;;;;;;1.35;1.25;;;28.40;99.90;;;;;;5077061;28;20055;-58
2023/09/04 11:03:18;;;;;;;1.45;1.35;;;28.30;99.90;;;;;;5083266;28;20058;-58
2023/09/04 11:06:03;;;;;;;2.35;1.60;;;28.50;99.90;;;;;;5092027;28;20410;-59
2023/09/04 11:08:29;;;;;;;1.83;1.60;;;28.50;99.90;;;;;;5102678;27;20063;-58
2023/09/04 11:13:25;;;;;;;1.77;0.95;;;28.50;99.90;;;;;;5112361;27;20058;-58
2023/09/04 11:15:58;;;;;;;1.30;1.20;;;28.90;99.90;;;;;;5101530;27;20052;-62
2023/09/04 11:18:35;;;;;;;4.72;1.10;;;28.50;99.90;;;;;;5059011;28;20090;-58
2023/09/04 11:21:03;;;;;;;1.20;1.10;;;28.80;99.90;;;;;;5075135;28;20063;-58
2023/09/04 11:23:31;;;;;;;1.40;1.08;;;28.90;99.90;;;;;;5078376;28;20060;-58
2023/09/04 11:25:57;;;;;;;0.98;0.93;;;30.60;99.90;;;;;;5077115;28;20551;-59
2023/09/04 11:28:25;;;;;;;2.05;1.63;;;32.50;99.90;;;;;;5074116;28;20055;-58
2023/09/04 11:30:58;;;;;;;1.73;1.00;;;33.80;98.40;;;;;;5079918;28;20056;-59
2023/09/04 11:33:29;;;;;;;1.48;1.13;;;35.70;97.00;;;;;;5080512;28;20147;-59
2023/09/04 11:38:25;;;;;;;3.22;1.23;;;37.00;95.20;;;;;;5084191;28;20062;-58
2023/09/04 11:40:52;;;;;;;1.88;1.15;;;37.60;94.30;;;;;;5077027;28;20052;-60
2023/09/04 11:43:17;;;;;;;4.68;1.00;;;37.50;93.70;;;;;;5077712;28;20111;-59
2023/09/04 11:45:43;;;;;;;2.40;1.23;;;38.90;92.90;;;;;;5074517;28;20436;-59
2023/09/04 11:48:09;;;;;;;1.92;0.90;;;38.40;91.50;;;;;;5060705;28;20468;-59
2023/09/04 11:50:36;;;;;;;2.42;1.20;;;38.10;91.80;;;;;;5070412;28;20113;-58
2023/09/04 11:53:03;;;;;;;2.58;1.30;;;38.90;90.50;;;;;;5071305;28;20056;-58
2023/09/04 11:55:29;;;;;;;2.58;0.82;;;38.60;90.30;;;;;;5010937;28;1149613;-58
2023/09/04 11:57:55;;;;;;;1.80;1.08;;;37.60;91.00;;;;;;5074500;28;20113;-60
2023/09/04 12:00:21;;;;;;;4.70;1.15;;;38.00;90.70;;;;;;5081639;28;20128;-58
2023/09/04 12:02:46;;;;;;;0.80;0.80;;;37.90;90.60;;;;;;5077894;28;20811;-58
2023/09/04 12:05:15;;;;;;;2.22;1.20;;;37.60;90.80;;;;;;5064508;28;20558;-58
2023/09/04 12:07:41;;;;;;;3.15;1.13;;;36.50;90.90;;;;;;5080340;28;20053;-58
2023/09/04 12:10:07;;;;;;;2.38;1.10;;;35.90;90.80;;;;;;5076072;28;20045;-58
2023/09/04 12:12:33;;;;;;;1.83;1.17;;;35.80;91.00;;;;;;5058808;28;20068;-60
2023/09/04 12:15:03;;;;;;;2.17;1.50;;;35.40;91.70;;;;;;5077286;28;20382;-59
2023/09/04 12:17:29;;;;;;;1.75;1.27;;;34.00;92.30;;;;;;5077327;28;20067;-67
2023/09/04 12:19:55;;;;;;;1.13;1.00;;;33.00;92.80;;;;;;5083140;28;20091;-66
2023/09/04 12:22:21;;;;;;;4.70;1.48;;;32.50;93.40;;;;;;5074944;28;20090;-59
2023/09/04 12:25:05;;;;;;;1.42;1.13;;;32.20;94.40;;;;;;5074700;28;20056;-59
2023/09/04 12:27:33;;;;;;;3.33;1.15;;;32.00;94.90;;;;;;5073977;28;20051;-59
2023/09/04 12:32:28;;;;;;;1.63;0.95;;;31.50;94.40;;;;;;5096854;27;20044;-59
2023/09/04 12:37:24;;;;;;;1.70;1.02;;;31.70;95.80;;;;;;5111454;27;20067;-58
2023/09/04 12:39:50;;;;;;;110.85;86.05;;;31.80;96.00;;;;;;5108654;27;20060;-59
2023/09/04 12:42:16;;;;;;;18.67;13.90;;;31.50;95.60;;;;;;5092990;27;20462;-58
2023/09/04 12:44:41;;;;;;;7.35;4.63;;;31.90;96.10;;;;;;5100925;27;20054;-58
2023/09/04 12:47:07;;;;;;;4.07;3.50;;;31.60;95.60;;;;;;5101459;27;20386;-59
2023/09/04 12:49:33;;;;;;;3.65;2.88;;;31.50;95.30;;;;;;5105154;27;20064;-58
2023/09/04 12:52:02;;;;;;;2.55;1.52;;;32.00;95.90;;;;;;5105434;27;20765;-64
2023/09/04 12:54:28;;;;;;;1.48;1.08;;;32.20;94.60;;;;;;5082432;27;20159;-64
2023/09/04 12:56:54;;;;;;;2.15;1.60;;;31.90;95.50;;;;;;5100635;27;20147;-67
2023/09/04 12:59:20;;;;;;;2.50;1.25;;;31.90;95.30;;;;;;5095266;28;20063;-61
2023/09/04 13:01:46;;;;;;;1.45;1.08;;;32.20;95.00;;;;;;5107212;27;20078;-58